sensor_id;sensor_type;location;lat;lon;timestamp;pressure;altitude;pressure_sealevel;temperature;humidity
44351;BME280;62766;62.622;17.912;2023-01-29T00:00:23;100161.09;;;0.75;55.66
44351;BME280;62766;62.622;17.912;2023-01-29T00:02:52;100162.22;;;0.74;55.62
44351;BME280;62766;62.622;17.912;2023-01-29T00:05:20;100159.85;;;0.78;55.48
44351;BME280;62766;62.622;17.912;2023-01-29T00:07:49;100157.35;;;0.91;55.33
44351;BME280;62766;62.622;17.912;2023-01-29T00:10:17;100153.80;;;0.87;55.32
44351;BME280;62766;62.622;17.912;2023-01-29T00:12:45;100147.98;;;0.82;55.26
44351;BME280;62766;62.622;17.912;2023-01-29T00:15:14;100144.95;;;0.84;55.43
44351;BME280;62766;62.622;17.912;2023-01-29T00:17:42;100145.55;;;0.90;55.42
44351;BME280;62766;62.622;17.912;2023-01-29T00:20:11;100144.89;;;0.93;55.40
44351;BME280;62766;62.622;17.912;2023-01-29T00:22:39;100136.49;;;0.96;55.36
44351;BME280;62766;62.622;17.912;2023-01-29T00:25:08;100132.87;;;1.09;55.40
44351;BME280;62766;62.622;17.912;2023-01-29T00:27:36;100127.42;;;1.08;55.44
44351;BME280;62766;62.622;17.912;2023-01-29T00:30:06;100130.50;;;1.06;55.36
44351;BME280;62766;62.622;17.912;2023-01-29T00:32:35;100132.74;;;1.05;55.35
44351;BME280;62766;62.622;17.912;2023-01-29T00:35:04;100138.52;;;1.16;55.35
44351;BME280;62766;62.622;17.912;2023-01-29T00:37:34;100141.42;;;0.99;55.58
44351;BME280;62766;62.622;17.912;2023-01-29T00:40:02;100140.17;;;1.04;55.71
44351;BME280;62766;62.622;17.912;2023-01-29T00:42:30;100140.46;;;0.99;55.77
44351;BME280;62766;62.622;17.912;2023-01-29T00:44:59;100140.93;;;1.00;55.63
44351;BME280;62766;62.622;17.912;2023-01-29T00:47:28;100135.41;;;1.07;55.84
44351;BME280;62766;62.622;17.912;2023-01-29T00:49:58;100134.76;;;0.94;55.96
44351;BME280;62766;62.622;17.912;2023-01-29T00:52:27;100130.22;;;1.05;56.06
44351;BME280;62766;62.622;17.912;2023-01-29T00:54:58;100128.93;;;1.13;56.07
44351;BME280;62766;62.622;17.912;2023-01-29T00:57:29;100122.90;;;0.96;56.31
44351;BME280;62766;62.622;17.912;2023-01-29T00:59:58;100120.05;;;1.02;56.43
44351;BME280;62766;62.622;17.912;2023-01-29T01:02:27;100121.63;;;0.99;56.63
44351;BME280;62766;62.622;17.912;2023-01-29T01:04:57;100122.78;;;1.18;56.75
44351;BME280;62766;62.622;17.912;2023-01-29T01:07:26;100122.91;;;0.96;57.06
44351;BME280;62766;62.622;17.912;2023-01-29T01:09:55;100122.55;;;0.97;57.39
44351;BME280;62766;62.622;17.912;2023-01-29T01:12:24;100118.35;;;0.95;57.62
44351;BME280;62766;62.622;17.912;2023-01-29T01:14:52;100123.75;;;0.92;58.06
44351;BME280;62766;62.622;17.912;2023-01-29T01:17:21;100123.65;;;0.78;58.36
44351;BME280;62766;62.622;17.912;2023-01-29T01:19:49;100120.09;;;0.93;58.56
44351;BME280;62766;62.622;17.912;2023-01-29T01:22:18;100114.02;;;0.71;58.64
44351;BME280;62766;62.622;17.912;2023-01-29T01:24:46;100112.79;;;0.73;58.57
44351;BME280;62766;62.622;17.912;2023-01-29T01:27:15;100118.74;;;0.77;58.51
44351;BME280;62766;62.622;17.912;2023-01-29T01:29:43;100111.90;;;0.79;58.42
44351;BME280;62766;62.622;17.912;2023-01-29T01:32:12;100113.43;;;0.93;58.27
44351;BME280;62766;62.622;17.912;2023-01-29T01:34:40;100109.80;;;0.85;57.96
44351;BME280;62766;62.622;17.912;2023-01-29T01:37:08;100100.50;;;1.01;57.79
44351;BME280;62766;62.622;17.912;2023-01-29T01:39:37;100100.32;;;1.05;57.81
44351;BME280;62766;62.622;17.912;2023-01-29T01:42:10;100098.83;;;0.90;57.70
44351;BME280;62766;62.622;17.912;2023-01-29T01:44:58;100098.93;;;0.94;57.68
44351;BME280;62766;62.622;17.912;2023-01-29T01:47:32;100090.77;;;0.93;57.79
44351;BME280;62766;62.622;17.912;2023-01-29T01:50:06;100087.32;;;0.81;57.78
44351;BME280;62766;62.622;17.912;2023-01-29T01:52:39;100084.19;;;0.90;57.71
44351;BME280;62766;62.622;17.912;2023-01-29T01:55:12;100077.80;;;0.94;57.74
44351;BME280;62766;62.622;17.912;2023-01-29T01:57:45;100075.99;;;0.88;57.53
44351;BME280;62766;62.622;17.912;2023-01-29T02:00:17;100073.44;;;0.91;57.45
44351;BME280;62766;62.622;17.912;2023-01-29T02:02:46;100070.26;;;0.94;57.30
44351;BME280;62766;62.622;17.912;2023-01-29T02:05:16;100070.31;;;0.90;57.22
44351;BME280;62766;62.622;17.912;2023-01-29T02:07:46;100060.29;;;0.95;57.15
44351;BME280;62766;62.622;17.912;2023-01-29T02:10:17;100054.64;;;0.94;56.89
44351;BME280;62766;62.622;17.912;2023-01-29T02:12:46;100052.53;;;1.05;56.70
44351;BME280;62766;62.622;17.912;2023-01-29T02:15:15;100052.45;;;1.06;56.48
44351;BME280;62766;62.622;17.912;2023-01-29T02:17:43;100048.95;;;1.05;56.34
44351;BME280;62766;62.622;17.912;2023-01-29T02:20:18;100055.12;;;1.18;56.01
44351;BME280;62766;62.622;17.912;2023-01-29T02:23:07;100046.85;;;1.18;55.64
44351;BME280;62766;62.622;17.912;2023-01-29T02:25:50;100047.39;;;1.30;55.36
44351;BME280;62766;62.622;17.912;2023-01-29T02:28:31;100043.34;;;1.17;55.35
44351;BME280;62766;62.622;17.912;2023-01-29T02:31:08;100042.90;;;1.17;55.24
44351;BME280;62766;62.622;17.912;2023-01-29T02:33:48;100038.78;;;1.22;55.15
44351;BME280;62766;62.622;17.912;2023-01-29T02:36:29;100037.81;;;1.23;55.07
44351;BME280;62766;62.622;17.912;2023-01-29T02:39:12;100033.67;;;1.31;55.01
44351;BME280;62766;62.622;17.912;2023-01-29T02:41:46;100035.18;;;1.27;55.04
44351;BME280;62766;62.622;17.912;2023-01-29T02:44:23;100028.86;;;1.31;54.98
44351;BME280;62766;62.622;17.912;2023-01-29T02:47:00;100025.87;;;1.25;54.80
44351;BME280;62766;62.622;17.912;2023-01-29T02:49:32;100026.06;;;1.31;54.84
44351;BME280;62766;62.622;17.912;2023-01-29T02:52:07;100027.95;;;1.33;54.74
44351;BME280;62766;62.622;17.912;2023-01-29T02:54:40;100023.31;;;1.40;54.68
44351;BME280;62766;62.622;17.912;2023-01-29T02:57:16;100033.82;;;1.25;54.61
44351;BME280;62766;62.622;17.912;2023-01-29T02:59:51;100037.71;;;1.40;54.46
44351;BME280;62766;62.622;17.912;2023-01-29T03:02:28;100039.82;;;1.27;54.55
44351;BME280;62766;62.622;17.912;2023-01-29T03:05:01;100043.32;;;1.35;54.61
44351;BME280;62766;62.622;17.912;2023-01-29T03:07:36;100044.92;;;1.27;54.39
44351;BME280;62766;62.622;17.912;2023-01-29T03:10:12;100043.66;;;1.33;54.45
44351;BME280;62766;62.622;17.912;2023-01-29T03:12:43;100048.65;;;1.29;54.52
44351;BME280;62766;62.622;17.912;2023-01-29T03:15:17;100042.82;;;1.33;54.35
44351;BME280;62766;62.622;17.912;2023-01-29T03:17:53;100037.35;;;1.19;54.47
44351;BME280;62766;62.622;17.912;2023-01-29T03:20:29;100032.11;;;1.16;54.54
44351;BME280;62766;62.622;17.912;2023-01-29T03:23:05;100018.48;;;1.19;54.71
44351;BME280;62766;62.622;17.912;2023-01-29T03:25:37;100011.91;;;1.17;54.70
44351;BME280;62766;62.622;17.912;2023-01-29T03:28:08;100003.96;;;1.11;54.68
44351;BME280;62766;62.622;17.912;2023-01-29T03:30:42;99994.24;;;1.04;54.64
44351;BME280;62766;62.622;17.912;2023-01-29T03:33:13;99990.83;;;1.11;54.75
44351;BME280;62766;62.622;17.912;2023-01-29T03:35:45;99987.92;;;0.96;54.53
44351;BME280;62766;62.622;17.912;2023-01-29T03:38:17;99990.11;;;1.01;54.72
44351;BME280;62766;62.622;17.912;2023-01-29T03:40:51;99988.81;;;1.16;54.59
44351;BME280;62766;62.622;17.912;2023-01-29T03:43:30;99979.83;;;1.10;54.48
44351;BME280;62766;62.622;17.912;2023-01-29T03:46:05;99971.39;;;1.01;54.20
44351;BME280;62766;62.622;17.912;2023-01-29T03:48:37;99967.72;;;0.98;54.30
44351;BME280;62766;62.622;17.912;2023-01-29T03:51:15;99967.88;;;1.20;54.27
44351;BME280;62766;62.622;17.912;2023-01-29T03:53:52;99970.00;;;1.02;53.89
44351;BME280;62766;62.622;17.912;2023-01-29T03:56:34;99968.82;;;1.20;53.94
44351;BME280;62766;62.622;17.912;2023-01-29T03:59:12;99948.01;;;1.06;53.97
44351;BME280;62766;62.622;17.912;2023-01-29T04:01:45;99941.17;;;1.11;53.96
44351;BME280;62766;62.622;17.912;2023-01-29T04:04:18;99940.52;;;1.10;53.69
44351;BME280;62766;62.622;17.912;2023-01-29T04:06:50;99932.83;;;1.14;53.67
44351;BME280;62766;62.622;17.912;2023-01-29T04:09:23;99929.92;;;1.24;53.48
44351;BME280;62766;62.622;17.912;2023-01-29T04:12:00;99937.10;;;1.28;53.25
44351;BME280;62766;62.622;17.912;2023-01-29T04:14:30;99937.84;;;1.25;53.16
44351;BME280;62766;62.622;17.912;2023-01-29T04:17:05;99935.58;;;1.30;53.18
44351;BME280;62766;62.622;17.912;2023-01-29T04:19:36;99926.98;;;1.21;53.08
44351;BME280;62766;62.622;17.912;2023-01-29T04:22:06;99924.12;;;1.25;52.93
44351;BME280;62766;62.622;17.912;2023-01-29T04:24:38;99918.91;;;1.25;53.23
44351;BME280;62766;62.622;17.912;2023-01-29T04:27:20;99909.59;;;1.27;52.64
44351;BME280;62766;62.622;17.912;2023-01-29T04:29:59;99907.99;;;1.23;52.83
44351;BME280;62766;62.622;17.912;2023-01-29T04:32:37;99902.95;;;1.29;52.71
44351;BME280;62766;62.622;17.912;2023-01-29T04:35:16;99898.38;;;1.33;52.66
44351;BME280;62766;62.622;17.912;2023-01-29T04:37:56;99895.52;;;1.10;52.77
44351;BME280;62766;62.622;17.912;2023-01-29T04:40:32;99884.55;;;1.08;53.12
44351;BME280;62766;62.622;17.912;2023-01-29T04:43:08;99884.60;;;1.02;52.88
44351;BME280;62766;62.622;17.912;2023-01-29T04:45:45;99879.63;;;1.19;52.90
44351;BME280;62766;62.622;17.912;2023-01-29T04:48:20;99876.39;;;1.10;52.84
44351;BME280;62766;62.622;17.912;2023-01-29T04:50:56;99869.82;;;1.02;53.15
44351;BME280;62766;62.622;17.912;2023-01-29T04:53:34;99856.72;;;1.19;53.03
44351;BME280;62766;62.622;17.912;2023-01-29T04:56:07;99851.08;;;1.15;52.81
44351;BME280;62766;62.622;17.912;2023-01-29T04:58:41;99842.56;;;1.10;52.79
44351;BME280;62766;62.622;17.912;2023-01-29T05:03:24;99835.80;;;0.99;53.09
44351;BME280;62766;62.622;17.912;2023-01-29T05:05:55;99828.32;;;0.94;53.31
44351;BME280;62766;62.622;17.912;2023-01-29T05:08:27;99817.73;;;1.03;53.23
44351;BME280;62766;62.622;17.912;2023-01-29T05:10:58;99823.28;;;1.03;53.19
44351;BME280;62766;62.622;17.912;2023-01-29T05:13:29;99814.88;;;1.02;53.00
44351;BME280;62766;62.622;17.912;2023-01-29T05:16:01;99816.56;;;1.04;53.10
44351;BME280;62766;62.622;17.912;2023-01-29T05:18:32;99817.48;;;1.13;52.89
44351;BME280;62766;62.622;17.912;2023-01-29T05:21:06;99815.23;;;1.17;52.92
44351;BME280;62766;62.622;17.912;2023-01-29T05:23:36;99805.82;;;1.15;52.99
44351;BME280;62766;62.622;17.912;2023-01-29T05:26:05;99797.16;;;1.25;52.97
44351;BME280;62766;62.622;17.912;2023-01-29T05:28:34;99793.49;;;1.31;52.97
44351;BME280;62766;62.622;17.912;2023-01-29T05:31:02;99794.64;;;1.40;52.84
44351;BME280;62766;62.622;17.912;2023-01-29T05:33:31;99790.58;;;1.36;52.63
44351;BME280;62766;62.622;17.912;2023-01-29T05:35:59;99784.18;;;1.49;52.62
44351;BME280;62766;62.622;17.912;2023-01-29T05:38:28;99773.12;;;1.57;52.32
44351;BME280;62766;62.622;17.912;2023-01-29T05:40:57;99770.28;;;1.45;52.04
44351;BME280;62766;62.622;17.912;2023-01-29T05:43:26;99763.34;;;1.43;51.95
44351;BME280;62766;62.622;17.912;2023-01-29T05:45:56;99756.04;;;1.39;52.00
44351;BME280;62766;62.622;17.912;2023-01-29T05:48:26;99747.60;;;1.57;51.79
44351;BME280;62766;62.622;17.912;2023-01-29T05:50:59;99740.51;;;1.52;51.99
44351;BME280;62766;62.622;17.912;2023-01-29T05:53:27;99727.33;;;1.59;51.97
44351;BME280;62766;62.622;17.912;2023-01-29T05:55:55;99719.73;;;1.69;51.82
44351;BME280;62766;62.622;17.912;2023-01-29T05:58:24;99715.55;;;1.70;51.67
44351;BME280;62766;62.622;17.912;2023-01-29T06:00:52;99715.56;;;1.72;51.65
44351;BME280;62766;62.622;17.912;2023-01-29T06:03:21;99710.64;;;1.66;51.24
44351;BME280;62766;62.622;17.912;2023-01-29T06:05:49;99701.94;;;1.69;51.10
44351;BME280;62766;62.622;17.912;2023-01-29T06:08:18;99695.55;;;1.58;51.33
44351;BME280;62766;62.622;17.912;2023-01-29T06:10:46;99690.14;;;1.66;51.24
44351;BME280;62766;62.622;17.912;2023-01-29T06:13:14;99676.45;;;1.70;51.04
44351;BME280;62766;62.622;17.912;2023-01-29T06:15:43;99671.08;;;1.71;51.14
44351;BME280;62766;62.622;17.912;2023-01-29T06:18:11;99668.81;;;1.65;51.22
44351;BME280;62766;62.622;17.912;2023-01-29T06:20:40;99668.87;;;1.71;51.25
44351;BME280;62766;62.622;17.912;2023-01-29T06:23:08;99668.41;;;1.59;51.16
44351;BME280;62766;62.622;17.912;2023-01-29T06:25:37;99661.84;;;1.65;51.15
44351;BME280;62766;62.622;17.912;2023-01-29T06:28:07;99661.21;;;1.52;51.35
44351;BME280;62766;62.622;17.912;2023-01-29T06:30:36;99658.98;;;1.49;51.30
44351;BME280;62766;62.622;17.912;2023-01-29T06:33:05;99654.04;;;1.65;51.37
44351;BME280;62766;62.622;17.912;2023-01-29T06:35:34;99647.91;;;1.46;51.52
44351;BME280;62766;62.622;17.912;2023-01-29T06:38:02;99639.26;;;1.44;51.74
44351;BME280;62766;62.622;17.912;2023-01-29T06:40:31;99635.90;;;1.43;51.69
44351;BME280;62766;62.622;17.912;2023-01-29T06:42:59;99633.11;;;1.43;51.80
44351;BME280;62766;62.622;17.912;2023-01-29T06:45:27;99630.11;;;1.46;51.91
44351;BME280;62766;62.622;17.912;2023-01-29T06:47:56;99624.68;;;1.48;51.78
44351;BME280;62766;62.622;17.912;2023-01-29T06:50:25;99619.29;;;1.50;51.75
44351;BME280;62766;62.622;17.912;2023-01-29T06:52:53;99610.26;;;1.60;51.30
44351;BME280;62766;62.622;17.912;2023-01-29T06:55:22;99607.71;;;1.60;51.11
44351;BME280;62766;62.622;17.912;2023-01-29T06:57:50;99597.54;;;1.72;51.16
44351;BME280;62766;62.622;17.912;2023-01-29T07:00:19;99587.36;;;1.72;51.27
44351;BME280;62766;62.622;17.912;2023-01-29T07:02:48;99578.02;;;1.58;51.32
44351;BME280;62766;62.622;17.912;2023-01-29T07:05:15;99581.71;;;1.65;51.20
44351;BME280;62766;62.622;17.912;2023-01-29T07:07:44;99585.80;;;1.62;51.53
44351;BME280;62766;62.622;17.912;2023-01-29T07:10:12;99579.81;;;1.67;51.29
44351;BME280;62766;62.622;17.912;2023-01-29T07:12:41;99578.22;;;1.63;51.03
44351;BME280;62766;62.622;17.912;2023-01-29T07:15:09;99578.45;;;1.75;51.17
44351;BME280;62766;62.622;17.912;2023-01-29T07:17:38;99575.99;;;1.71;50.79
44351;BME280;62766;62.622;17.912;2023-01-29T07:20:07;99573.48;;;1.68;50.64
44351;BME280;62766;62.622;17.912;2023-01-29T07:22:37;99577.25;;;1.73;50.82
44351;BME280;62766;62.622;17.912;2023-01-29T07:25:08;99575.23;;;1.70;50.97
44351;BME280;62766;62.622;17.912;2023-01-29T07:27:37;99575.09;;;1.74;50.50
44351;BME280;62766;62.622;17.912;2023-01-29T07:30:08;99571.22;;;1.79;50.59
44351;BME280;62766;62.622;17.912;2023-01-29T07:32:37;99561.55;;;1.81;50.69
44351;BME280;62766;62.622;17.912;2023-01-29T07:35:06;99550.20;;;1.82;50.29
44351;BME280;62766;62.622;17.912;2023-01-29T07:37:36;99541.50;;;1.90;50.20
44351;BME280;62766;62.622;17.912;2023-01-29T07:40:07;99535.41;;;1.93;50.09
44351;BME280;62766;62.622;17.912;2023-01-29T07:42:37;99529.30;;;1.94;50.08
44351;BME280;62766;62.622;17.912;2023-01-29T07:45:07;99524.37;;;2.02;49.94
44351;BME280;62766;62.622;17.912;2023-01-29T07:47:37;99518.72;;;2.06;50.11
44351;BME280;62766;62.622;17.912;2023-01-29T07:50:07;99512.48;;;2.06;49.88
44351;BME280;62766;62.622;17.912;2023-01-29T07:52:37;99512.30;;;2.15;49.76
44351;BME280;62766;62.622;17.912;2023-01-29T07:55:07;99510.74;;;2.25;49.95
44351;BME280;62766;62.622;17.912;2023-01-29T07:57:37;99502.40;;;2.17;49.65
44351;BME280;62766;62.622;17.912;2023-01-29T08:00:06;99499.06;;;2.31;49.41
44351;BME280;62766;62.622;17.912;2023-01-29T08:02:36;99501.06;;;2.41;49.26
44351;BME280;62766;62.622;17.912;2023-01-29T08:05:07;99500.67;;;2.41;49.23
44351;BME280;62766;62.622;17.912;2023-01-29T08:07:36;99498.62;;;2.38;48.97
44351;BME280;62766;62.622;17.912;2023-01-29T08:10:06;99497.39;;;2.32;48.96
44351;BME280;62766;62.622;17.912;2023-01-29T08:12:34;99499.74;;;2.18;49.19
44351;BME280;62766;62.622;17.912;2023-01-29T08:15:04;99493.14;;;2.33;49.34
44351;BME280;62766;62.622;17.912;2023-01-29T08:17:32;99487.21;;;2.28;49.52
44351;BME280;62766;62.622;17.912;2023-01-29T08:20:01;99489.30;;;2.28;48.97
44351;BME280;62766;62.622;17.912;2023-01-29T08:22:29;99486.49;;;2.36;49.40
44351;BME280;62766;62.622;17.912;2023-01-29T08:24:58;99475.47;;;2.30;49.21
44351;BME280;62766;62.622;17.912;2023-01-29T08:27:26;99473.65;;;2.34;49.33
44351;BME280;62766;62.622;17.912;2023-01-29T08:29:55;99469.37;;;2.32;49.23
44351;BME280;62766;62.622;17.912;2023-01-29T08:32:23;99469.09;;;2.43;49.26
44351;BME280;62766;62.622;17.912;2023-01-29T08:34:51;99463.16;;;2.45;49.44
44351;BME280;62766;62.622;17.912;2023-01-29T08:37:20;99462.12;;;2.32;49.39
44351;BME280;62766;62.622;17.912;2023-01-29T08:39:48;99455.66;;;2.26;49.51
44351;BME280;62766;62.622;17.912;2023-01-29T08:42:17;99456.44;;;2.34;49.50
44351;BME280;62766;62.622;17.912;2023-01-29T08:44:45;99456.84;;;2.45;49.68
44351;BME280;62766;62.622;17.912;2023-01-29T08:47:13;99452.61;;;2.32;49.58
44351;BME280;62766;62.622;17.912;2023-01-29T08:49:42;99443.81;;;2.47;49.64
44351;BME280;62766;62.622;17.912;2023-01-29T08:52:10;99439.68;;;2.40;49.67
44351;BME280;62766;62.622;17.912;2023-01-29T08:54:39;99432.57;;;2.47;50.20
44351;BME280;62766;62.622;17.912;2023-01-29T08:57:07;99428.33;;;2.38;50.96
44351;BME280;62766;62.622;17.912;2023-01-29T08:59:36;99425.40;;;2.30;51.37
44351;BME280;62766;62.622;17.912;2023-01-29T09:02:05;99421.38;;;2.37;52.05
44351;BME280;62766;62.622;17.912;2023-01-29T09:04:34;99411.42;;;2.39;52.40
44351;BME280;62766;62.622;17.912;2023-01-29T09:07:02;99410.09;;;2.40;53.01
44351;BME280;62766;62.622;17.912;2023-01-29T09:09:31;99403.87;;;2.33;53.31
44351;BME280;62766;62.622;17.912;2023-01-29T09:11:59;99394.34;;;2.22;53.92
44351;BME280;62766;62.622;17.912;2023-01-29T09:14:27;99383.06;;;2.47;54.42
44351;BME280;62766;62.622;17.912;2023-01-29T09:16:56;99376.78;;;2.48;54.79
44351;BME280;62766;62.622;17.912;2023-01-29T09:19:24;99373.99;;;2.49;54.95
44351;BME280;62766;62.622;17.912;2023-01-29T09:21:53;99370.14;;;2.55;54.99
44351;BME280;62766;62.622;17.912;2023-01-29T09:24:21;99363.10;;;2.62;54.87
44351;BME280;62766;62.622;17.912;2023-01-29T09:26:49;99359.74;;;2.58;54.86
44351;BME280;62766;62.622;17.912;2023-01-29T09:29:18;99352.03;;;2.63;54.72
44351;BME280;62766;62.622;17.912;2023-01-29T09:31:46;99352.08;;;2.66;54.69
44351;BME280;62766;62.622;17.912;2023-01-29T09:34:15;99342.23;;;2.66;54.81
44351;BME280;62766;62.622;17.912;2023-01-29T09:36:43;99335.56;;;2.73;54.66
44351;BME280;62766;62.622;17.912;2023-01-29T09:39:11;99324.99;;;2.73;54.55
44351;BME280;62766;62.622;17.912;2023-01-29T09:41:48;99319.70;;;2.82;54.60
44351;BME280;62766;62.622;17.912;2023-01-29T09:44:23;99307.85;;;2.75;54.49
44351;BME280;62766;62.622;17.912;2023-01-29T09:46:57;99304.43;;;2.80;54.35
44351;BME280;62766;62.622;17.912;2023-01-29T09:49:29;99298.37;;;2.92;54.15
44351;BME280;62766;62.622;17.912;2023-01-29T09:52:04;99291.05;;;2.72;54.21
44351;BME280;62766;62.622;17.912;2023-01-29T09:54:45;99278.76;;;2.84;54.12
44351;BME280;62766;62.622;17.912;2023-01-29T09:57:19;99259.68;;;2.84;53.92
44351;BME280;62766;62.622;17.912;2023-01-29T09:59:49;99245.99;;;2.93;53.80
44351;BME280;62766;62.622;17.912;2023-01-29T10:02:36;99235.90;;;2.97;53.81
44351;BME280;62766;62.622;17.912;2023-01-29T10:05:16;99216.62;;;3.12;53.47
44351;BME280;62766;62.622;17.912;2023-01-29T10:08:07;99211.23;;;3.33;53.19
44351;BME280;62766;62.622;17.912;2023-01-29T10:10:47;99209.07;;;3.41;53.07
44351;BME280;62766;62.622;17.912;2023-01-29T10:13:24;99203.00;;;3.58;52.87
44351;BME280;62766;62.622;17.912;2023-01-29T10:16:07;99196.81;;;3.60;52.47
44351;BME280;62766;62.622;17.912;2023-01-29T10:18:56;99186.02;;;3.63;52.25
44351;BME280;62766;62.622;17.912;2023-01-29T10:21:38;99177.91;;;3.71;51.67
44351;BME280;62766;62.622;17.912;2023-01-29T10:24:22;99169.55;;;3.80;51.49
44351;BME280;62766;62.622;17.912;2023-01-29T10:26:54;99171.29;;;3.80;50.91
44351;BME280;62766;62.622;17.912;2023-01-29T10:29:24;99162.33;;;3.87;50.83
44351;BME280;62766;62.622;17.912;2023-01-29T10:31:57;99150.72;;;3.84;50.52
44351;BME280;62766;62.622;17.912;2023-01-29T10:34:30;99133.69;;;4.06;49.85
44351;BME280;62766;62.622;17.912;2023-01-29T10:37:00;99122.50;;;3.99;49.38
44351;BME280;62766;62.622;17.912;2023-01-29T10:39:33;99109.27;;;3.81;49.14
44351;BME280;62766;62.622;17.912;2023-01-29T10:42:13;99097.50;;;3.95;49.30
44351;BME280;62766;62.622;17.912;2023-01-29T10:44:52;99079.74;;;3.91;49.41
44351;BME280;62766;62.622;17.912;2023-01-29T10:47:46;99067.91;;;3.87;49.38
44351;BME280;62766;62.622;17.912;2023-01-29T10:50:33;99049.26;;;3.82;49.71
44351;BME280;62766;62.622;17.912;2023-01-29T10:53:21;99035.78;;;3.90;49.62
44351;BME280;62766;62.622;17.912;2023-01-29T10:55:57;99013.36;;;3.98;49.57
44351;BME280;62766;62.622;17.912;2023-01-29T10:58:35;99004.02;;;3.89;49.65
44351;BME280;62766;62.622;17.912;2023-01-29T11:03:31;98988.91;;;3.97;49.32
44351;BME280;62766;62.622;17.912;2023-01-29T11:06:08;98979.74;;;3.83;49.29
44351;BME280;62766;62.622;17.912;2023-01-29T11:08:42;98973.11;;;3.94;49.26
44351;BME280;62766;62.622;17.912;2023-01-29T11:11:15;98970.50;;;3.85;49.09
44351;BME280;62766;62.622;17.912;2023-01-29T11:13:49;98958.03;;;3.94;49.24
44351;BME280;62766;62.622;17.912;2023-01-29T11:16:19;98946.74;;;3.93;48.97
44351;BME280;62766;62.622;17.912;2023-01-29T11:18:51;98934.08;;;3.89;49.03
44351;BME280;62766;62.622;17.912;2023-01-29T11:21:20;98929.72;;;3.95;48.72
44351;BME280;62766;62.622;17.912;2023-01-29T11:23:50;98918.47;;;4.03;48.52
44351;BME280;62766;62.622;17.912;2023-01-29T11:26:35;98912.98;;;4.01;48.14
44351;BME280;62766;62.622;17.912;2023-01-29T11:29:28;98912.37;;;3.87;48.21
44351;BME280;62766;62.622;17.912;2023-01-29T11:31:58;98903.34;;;3.99;48.47
44351;BME280;62766;62.622;17.912;2023-01-29T11:34:26;98898.33;;;4.03;48.41
44351;BME280;62766;62.622;17.912;2023-01-29T11:36:56;98889.00;;;3.98;48.36
44351;BME280;62766;62.622;17.912;2023-01-29T11:39:26;98884.47;;;3.94;48.13
44351;BME280;62766;62.622;17.912;2023-01-29T11:41:56;98872.91;;;3.86;48.16
44351;BME280;62766;62.622;17.912;2023-01-29T11:44:30;98860.52;;;3.98;48.29
44351;BME280;62766;62.622;17.912;2023-01-29T11:47:10;98849.47;;;3.98;48.37
44351;BME280;62766;62.622;17.912;2023-01-29T11:49:44;98845.90;;;3.92;48.43
44351;BME280;62766;62.622;17.912;2023-01-29T11:52:14;98833.58;;;3.80;48.70
44351;BME280;62766;62.622;17.912;2023-01-29T11:54:47;98821.10;;;3.71;48.87
44351;BME280;62766;62.622;17.912;2023-01-29T11:57:25;98812.63;;;3.68;48.98
44351;BME280;62766;62.622;17.912;2023-01-29T11:59:57;98798.24;;;3.63;49.22
44351;BME280;62766;62.622;17.912;2023-01-29T12:02:32;98782.08;;;3.67;49.12
44351;BME280;62766;62.622;17.912;2023-01-29T12:05:12;98764.25;;;3.60;49.16
44351;BME280;62766;62.622;17.912;2023-01-29T12:07:43;98751.73;;;3.55;49.24
44351;BME280;62766;62.622;17.912;2023-01-29T12:10:29;98741.95;;;3.61;49.33
44351;BME280;62766;62.622;17.912;2023-01-29T12:13:20;98734.64;;;3.63;49.49
44351;BME280;62766;62.622;17.912;2023-01-29T12:16:11;98736.76;;;3.65;49.53
44351;BME280;62766;62.622;17.912;2023-01-29T12:18:41;98727.86;;;3.67;49.51
44351;BME280;62766;62.622;17.912;2023-01-29T12:21:16;98720.48;;;3.61;49.61
44351;BME280;62766;62.622;17.912;2023-01-29T12:23:52;98716.73;;;3.61;49.47
44351;BME280;62766;62.622;17.912;2023-01-29T12:26:27;98703.75;;;3.64;49.54
44351;BME280;62766;62.622;17.912;2023-01-29T12:29:12;98706.90;;;3.44;49.77
44351;BME280;62766;62.622;17.912;2023-01-29T12:31:49;98697.57;;;3.26;50.20
44351;BME280;62766;62.622;17.912;2023-01-29T12:34:24;98684.09;;;3.35;50.36
44351;BME280;62766;62.622;17.912;2023-01-29T12:37:02;98677.15;;;3.19;50.53
44351;BME280;62766;62.622;17.912;2023-01-29T12:39:33;98665.68;;;3.10;50.84
44351;BME280;62766;62.622;17.912;2023-01-29T12:42:09;98659.41;;;3.04;51.13
44351;BME280;62766;62.622;17.912;2023-01-29T12:44:43;98655.98;;;3.00;51.34
44351;BME280;62766;62.622;17.912;2023-01-29T12:47:18;98645.35;;;2.94;51.61
44351;BME280;62766;62.622;17.912;2023-01-29T12:49:51;98642.62;;;2.81;52.00
44351;BME280;62766;62.622;17.912;2023-01-29T12:52:32;98644.39;;;2.71;52.17
44351;BME280;62766;62.622;17.912;2023-01-29T12:55:10;98636.26;;;2.63;52.22
44351;BME280;62766;62.622;17.912;2023-01-29T12:57:43;98622.31;;;2.74;52.51
44351;BME280;62766;62.622;17.912;2023-01-29T13:00:18;98613.46;;;2.62;52.80
44351;BME280;62766;62.622;17.912;2023-01-29T13:02:54;98601.57;;;2.55;53.06
44351;BME280;62766;62.622;17.912;2023-01-29T13:05:27;98598.78;;;2.63;53.24
44351;BME280;62766;62.622;17.912;2023-01-29T13:08:02;98589.89;;;2.60;53.31
44351;BME280;62766;62.622;17.912;2023-01-29T13:10:36;98590.29;;;2.53;53.57
44351;BME280;62766;62.622;17.912;2023-01-29T13:13:13;98580.89;;;2.45;53.76
44351;BME280;62766;62.622;17.912;2023-01-29T13:15:43;98573.92;;;2.40;54.02
44351;BME280;62766;62.622;17.912;2023-01-29T13:18:28;98564.89;;;2.41;54.14
44351;BME280;62766;62.622;17.912;2023-01-29T13:21:00;98558.75;;;2.34;54.02
44351;BME280;62766;62.622;17.912;2023-01-29T13:23:33;98556.32;;;2.34;54.13
44351;BME280;62766;62.622;17.912;2023-01-29T13:26:05;98548.59;;;2.42;54.12
44351;BME280;62766;62.622;17.912;2023-01-29T13:28:33;98540.38;;;2.38;54.08